createdAt,value
2019-04-25T00:00:06.000Z,10.94
2019-04-25T00:01:05.964Z,10.90
2019-04-25T00:02:05.935Z,10.93
2019-04-25T00:03:05.896Z,10.90
2019-04-25T00:04:05.866Z,10.89
2019-04-25T00:05:05.829Z,10.89
2019-04-25T00:06:05.811Z,10.84
2019-04-25T00:07:05.760Z,10.84
2019-04-25T00:08:05.725Z,10.86
2019-04-25T00:09:05.713Z,10.79
2019-04-25T00:10:05.658Z,10.76
2019-04-25T00:11:05.624Z,10.86
2019-04-25T00:12:05.589Z,10.75
2019-04-25T00:13:05.559Z,10.79
2019-04-25T00:14:05.539Z,10.86
2019-04-25T00:15:05.494Z,10.78
2019-04-25T00:16:05.456Z,10.75
2019-04-25T00:17:05.424Z,10.75
2019-04-25T00:18:05.390Z,10.72
2019-04-25T00:19:05.359Z,10.79
2019-04-25T00:20:05.320Z,10.76
2019-04-25T00:21:05.290Z,10.87
2019-04-25T00:22:05.263Z,10.82
2019-04-25T00:23:05.229Z,10.75
2019-04-25T00:24:05.194Z,10.69
2019-04-25T00:25:15.020Z,10.75
2019-04-25T00:26:05.124Z,10.67
2019-04-25T00:27:05.095Z,10.75
2019-04-25T00:28:05.047Z,10.75
2019-04-25T00:29:05.024Z,10.68
2019-04-25T00:30:04.987Z,10.64
2019-04-25T00:31:04.950Z,10.68
2019-04-25T00:32:04.920Z,10.67
2019-04-25T00:33:04.885Z,10.78
2019-04-25T00:34:04.855Z,10.68
2019-04-25T00:35:04.817Z,10.78
2019-04-25T00:36:04.786Z,10.68
2019-04-25T00:37:04.751Z,10.68
2019-04-25T00:38:04.717Z,10.67
2019-04-25T00:39:04.683Z,10.67
2019-04-25T00:40:04.652Z,10.69
2019-04-25T00:41:04.618Z,10.72
2019-04-25T00:42:04.577Z,10.63
2019-04-25T00:43:04.548Z,10.67
2019-04-25T00:44:04.518Z,10.69
2019-04-25T00:45:04.481Z,10.64
2019-04-25T00:46:04.456Z,10.63
2019-04-25T00:47:04.411Z,10.60
2019-04-25T00:48:04.483Z,10.67
2019-04-25T00:49:04.362Z,10.63
2019-04-25T00:50:04.314Z,10.69
2019-04-25T00:51:04.282Z,10.68
2019-04-25T00:52:04.253Z,10.61
2019-04-25T00:53:04.218Z,10.63
2019-04-25T00:54:04.178Z,10.63
2019-04-25T00:55:04.143Z,10.63
2019-04-25T00:56:04.109Z,10.63
2019-04-25T00:57:04.077Z,10.68
2019-04-25T00:58:04.033Z,10.63
2019-04-25T00:59:04.017Z,10.63
2019-04-25T01:00:03.998Z,10.63
2019-04-25T01:01:03.940Z,10.64
2019-04-25T01:02:03.918Z,10.64
2019-04-25T01:03:03.877Z,10.61
2019-04-25T01:04:03.833Z,10.68
2019-04-25T01:05:03.807Z,10.60
2019-04-25T01:06:03.926Z,10.68
2019-04-25T01:07:03.741Z,10.69
2019-04-25T01:08:03.712Z,10.61
2019-04-25T01:09:03.678Z,10.68
2019-04-25T01:10:03.645Z,10.56
2019-04-25T01:11:03.611Z,10.54
2019-04-25T01:12:04.061Z,10.56
2019-04-25T01:13:03.534Z,10.53
2019-04-25T01:14:03.505Z,10.44
2019-04-25T01:15:03.472Z,10.60
2019-04-25T01:16:04.072Z,10.53
2019-04-25T01:17:03.404Z,10.57
2019-04-25T01:18:03.363Z,10.53
2019-04-25T01:19:03.570Z,10.54
2019-04-25T01:20:04.187Z,10.42
2019-04-25T01:21:04.477Z,10.49
2019-04-25T01:22:03.842Z,10.44
2019-04-25T01:23:03.799Z,10.44
2019-04-25T01:24:04.281Z,10.46
2019-04-25T01:25:03.840Z,10.46
2019-04-25T01:26:03.354Z,10.41
2019-04-25T01:27:03.344Z,10.42
2019-04-25T01:28:03.266Z,10.46
2019-04-25T01:29:03.675Z,10.42
2019-04-25T01:30:03.990Z,10.40
2019-04-25T01:31:03.847Z,10.44
2019-04-25T01:32:03.262Z,10.44
2019-04-25T01:33:03.506Z,10.42
2019-04-25T01:34:04.346Z,10.38
2019-04-25T01:35:04.002Z,10.44
2019-04-25T01:36:03.442Z,10.41
2019-04-25T01:37:04.166Z,10.42
2019-04-25T01:38:03.671Z,10.41
2019-04-25T01:39:04.220Z,10.44
2019-04-25T01:40:04.138Z,10.41
2019-04-25T01:41:03.348Z,10.44
2019-04-25T01:42:03.584Z,10.46
2019-04-25T01:43:03.726Z,10.40
2019-04-25T01:44:04.415Z,10.44
2019-04-25T01:45:03.967Z,10.35
2019-04-25T01:46:03.399Z,10.30
2019-04-25T01:47:04.094Z,10.33
2019-04-25T01:48:03.496Z,10.44
2019-04-25T01:49:02.317Z,10.42
2019-04-25T01:50:03.832Z,10.37
2019-04-25T01:51:04.006Z,10.49
2019-04-25T01:52:03.520Z,10.40
2019-04-25T01:53:03.423Z,10.44
2019-04-25T01:54:03.985Z,10.34
2019-04-25T01:55:03.491Z,10.38
2019-04-25T01:56:05.899Z,10.40
2019-04-25T01:57:02.051Z,10.38
2019-04-25T01:58:03.751Z,10.35
2019-04-25T01:59:03.766Z,10.34
2019-04-25T02:00:03.821Z,10.40
2019-04-25T02:01:02.657Z,10.40
2019-04-25T02:02:03.795Z,10.30
2019-04-25T02:03:03.682Z,10.31
2019-04-25T02:04:03.258Z,10.33
2019-04-25T02:05:01.770Z,10.33
2019-04-25T02:06:01.735Z,10.30
2019-04-25T02:07:03.340Z,10.28
2019-04-25T02:08:01.667Z,10.28
2019-04-25T02:09:01.648Z,10.23
2019-04-25T02:10:02.135Z,10.33
2019-04-25T02:11:01.581Z,10.23
2019-04-25T02:12:01.532Z,10.31
2019-04-25T02:13:02.474Z,10.20
2019-04-25T02:14:01.467Z,10.28
2019-04-25T02:15:03.921Z,10.22
2019-04-25T02:16:01.398Z,10.26
2019-04-25T02:17:02.314Z,10.34
2019-04-25T02:18:01.853Z,10.26
2019-04-25T02:19:02.410Z,10.30
2019-04-25T02:20:02.039Z,10.23
2019-04-25T02:21:02.318Z,10.26
2019-04-25T02:22:01.958Z,10.16
2019-04-25T02:23:02.053Z,10.22
2019-04-25T02:24:01.128Z,10.23
2019-04-25T02:25:01.096Z,10.26
2019-04-25T02:26:13.895Z,10.17
2019-04-25T02:27:01.022Z,10.23
2019-04-25T02:28:02.475Z,10.13
2019-04-25T02:29:00.955Z,10.20
2019-04-25T02:30:01.085Z,10.22
2019-04-25T02:31:03.797Z,10.19
2019-04-25T02:32:03.239Z,10.25
2019-04-25T02:33:06.118Z,10.16
2019-04-25T02:34:03.093Z,10.23
2019-04-25T02:35:04.476Z,10.23
2019-04-25T02:36:02.612Z,10.20
2019-04-25T02:37:02.983Z,10.20
2019-04-25T02:38:02.897Z,10.13
2019-04-25T02:39:03.279Z,10.26
2019-04-25T02:40:02.406Z,10.30
2019-04-25T02:41:02.304Z,10.26
2019-04-25T02:42:01.954Z,10.26
2019-04-25T02:43:02.000Z,10.20
2019-04-25T02:44:05.506Z,10.25
2019-04-25T02:45:02.358Z,10.26
2019-04-25T02:46:01.570Z,10.25
2019-04-25T02:47:01.068Z,10.25
2019-04-25T02:48:01.425Z,10.23
2019-04-25T02:49:02.644Z,10.15
2019-04-25T02:50:00.830Z,10.13
2019-04-25T02:51:01.167Z,10.20
2019-04-25T02:52:01.207Z,10.09
2019-04-25T02:53:01.281Z,10.16
2019-04-25T02:54:00.108Z,10.20
2019-04-25T02:55:00.763Z,10.13
2019-04-25T02:56:00.043Z,10.19
2019-04-25T02:57:00.067Z,10.10
2019-04-25T02:58:00.387Z,10.05
2019-04-25T02:59:00.315Z,10.05
2019-04-25T03:00:00.193Z,10.12
2019-04-25T03:01:10.735Z,10.17
2019-04-25T03:02:00.720Z,10.04
2019-04-25T03:03:01.021Z,10.13
2019-04-25T03:04:00.843Z,10.20
2019-04-25T03:05:01.113Z,10.09
2019-04-25T03:06:01.278Z,10.05
2019-04-25T03:07:00.626Z,10.13
2019-04-25T03:08:00.342Z,10.15
2019-04-25T03:09:00.313Z,10.07
2019-04-25T03:09:59.624Z,10.04
2019-04-25T03:10:59.852Z,10.12
2019-04-25T03:11:59.955Z,10.10
2019-04-25T03:13:00.277Z,10.12
2019-04-25T03:14:00.543Z,10.05
2019-04-25T03:15:00.150Z,10.01
2019-04-25T03:16:00.595Z,10.10
2019-04-25T03:17:00.401Z,10.12
2019-04-25T03:18:00.184Z,10.07
2019-04-25T03:19:00.291Z,10.10
2019-04-25T03:19:59.875Z,10.13
2019-04-25T03:21:00.925Z,10.09
2019-04-25T03:22:00.173Z,10.05
2019-04-25T03:23:00.057Z,10.07
2019-04-25T03:23:59.935Z,10.07
2019-04-25T03:25:00.273Z,10.16
2019-04-25T03:25:59.224Z,10.09
2019-04-25T03:26:59.411Z,10.10
2019-04-25T03:27:59.596Z,10.02
2019-04-25T03:28:59.663Z,10.05
2019-04-25T03:29:59.711Z,10.09
2019-04-25T03:31:01.419Z,10.13
2019-04-25T03:31:58.811Z,10.02
2019-04-25T03:32:58.780Z,10.12
2019-04-25T03:33:58.747Z,9.99
2019-04-25T03:34:58.699Z,10.05
2019-04-25T03:35:58.680Z,10.10
2019-04-25T03:36:58.635Z,10.05
2019-04-25T03:37:58.600Z,10.04
2019-04-25T03:38:58.567Z,10.07
2019-04-25T03:39:58.548Z,10.04
2019-04-25T03:40:58.504Z,10.09
2019-04-25T03:41:58.458Z,10.05
2019-04-25T03:42:58.428Z,10.09
2019-04-25T03:43:58.396Z,10.09
2019-04-25T03:44:58.366Z,10.02
2019-04-25T03:45:58.326Z,10.12
2019-04-25T03:46:58.291Z,10.10
2019-04-25T03:47:58.252Z,10.15
2019-04-25T03:48:58.223Z,10.09
2019-04-25T03:49:58.196Z,10.05
2019-04-25T03:50:58.158Z,10.02
2019-04-25T03:51:58.117Z,10.09
2019-04-25T03:52:58.096Z,10.16
2019-04-25T03:53:58.051Z,10.04
2019-04-25T03:54:58.021Z,10.09
2019-04-25T03:55:57.981Z,10.12
2019-04-25T03:56:57.959Z,10.07
2019-04-25T03:57:57.907Z,10.04
2019-04-25T03:58:57.878Z,10.12
2019-04-25T03:59:57.853Z,10.09
2019-04-25T04:00:57.823Z,10.02
2019-04-25T04:01:57.774Z,10.02
2019-04-25T04:02:57.761Z,10.07
2019-04-25T04:03:57.704Z,10.07
2019-04-25T04:04:57.670Z,10.13
2019-04-25T04:05:57.636Z,10.07
2019-04-25T04:06:57.604Z,10.04
2019-04-25T04:07:57.564Z,10.07
2019-04-25T04:08:57.547Z,10.07
2019-04-25T04:09:57.504Z,10.15
2019-04-25T04:10:57.467Z,10.07
2019-04-25T04:11:57.439Z,10.09
2019-04-25T04:12:57.402Z,10.07
2019-04-25T04:13:57.372Z,10.15
2019-04-25T04:14:57.332Z,10.10
2019-04-25T04:15:57.299Z,10.04
2019-04-25T04:16:57.267Z,9.99
2019-04-25T04:17:57.257Z,10.07
2019-04-25T04:18:57.203Z,10.01
2019-04-25T04:19:57.170Z,10.05
2019-04-25T04:20:57.124Z,9.97
2019-04-25T04:21:57.090Z,10.05
2019-04-25T04:22:57.058Z,9.92
2019-04-25T04:23:57.230Z,9.95
2019-04-25T04:24:56.998Z,10.09
2019-04-25T04:25:56.950Z,10.02
2019-04-25T04:27:03.721Z,9.99
2019-04-25T04:27:56.888Z,9.94
2019-04-25T04:28:56.855Z,10.05
2019-04-25T04:29:56.825Z,10.12
2019-04-25T04:30:56.789Z,10.13
2019-04-25T04:31:56.753Z,10.07
2019-04-25T04:32:56.710Z,10.07
2019-04-25T04:33:56.680Z,10.12
2019-04-25T04:34:56.648Z,10.02
2019-04-25T04:35:56.615Z,10.04
2019-04-25T04:36:56.573Z,10.09
2019-04-25T04:37:56.552Z,10.10
2019-04-25T04:38:56.519Z,10.16
2019-04-25T04:39:56.479Z,10.12
2019-04-25T04:40:56.442Z,10.12
2019-04-25T04:41:56.404Z,10.13
2019-04-25T04:42:56.374Z,10.20
2019-04-25T04:43:56.339Z,10.25
2019-04-25T04:44:56.305Z,10.12
2019-04-25T04:45:56.276Z,10.15
2019-04-25T04:46:56.240Z,10.19
2019-04-25T04:47:56.205Z,10.23
2019-04-25T04:48:56.165Z,10.26
2019-04-25T04:49:56.144Z,10.35
2019-04-25T04:50:56.110Z,10.25
2019-04-25T04:51:56.061Z,10.28
2019-04-25T04:52:56.034Z,10.30
2019-04-25T04:53:55.999Z,10.25
2019-04-25T04:55:05.385Z,10.25
2019-04-25T04:55:55.931Z,10.25
2019-04-25T04:56:55.905Z,10.26
2019-04-25T04:57:55.863Z,10.34
2019-04-25T04:58:55.822Z,10.30
2019-04-25T04:59:55.786Z,10.34
2019-04-25T05:00:55.755Z,10.35
2019-04-25T05:01:55.728Z,10.37
2019-04-25T05:02:55.682Z,10.38
2019-04-25T05:03:55.656Z,10.38
2019-04-25T05:04:55.625Z,10.38
2019-04-25T05:05:55.590Z,10.44
2019-04-25T05:06:55.552Z,10.38
2019-04-25T05:07:55.518Z,10.40
2019-04-25T05:08:55.511Z,10.44
2019-04-25T05:09:55.462Z,10.51
2019-04-25T05:10:57.333Z,10.46
2019-04-25T05:11:55.388Z,10.51
2019-04-25T05:12:55.343Z,10.57
2019-04-25T05:13:55.317Z,10.59
2019-04-25T05:14:55.277Z,10.56
2019-04-25T05:15:55.257Z,10.61
2019-04-25T05:16:55.218Z,10.71
2019-04-25T05:17:55.197Z,10.61
2019-04-25T05:18:55.420Z,10.74
2019-04-25T05:19:55.128Z,10.79
2019-04-25T05:20:55.081Z,10.78
2019-04-25T05:21:55.044Z,10.82
2019-04-25T05:22:55.257Z,10.78
2019-04-25T05:23:54.973Z,10.93
2019-04-25T05:24:54.947Z,10.89
2019-04-25T05:25:55.766Z,10.92
2019-04-25T05:26:54.874Z,10.96
2019-04-25T05:28:02.936Z,10.93
2019-04-25T05:28:54.996Z,10.94
2019-04-25T05:29:54.780Z,11.04
2019-04-25T05:30:54.739Z,10.99
2019-04-25T05:31:54.708Z,11.05
2019-04-25T05:32:54.668Z,11.08
2019-04-25T05:33:54.643Z,11.15
2019-04-25T05:34:54.612Z,11.22
2019-04-25T05:35:54.578Z,11.17
2019-04-25T05:36:54.542Z,11.18
2019-04-25T05:37:54.512Z,11.22
2019-04-25T05:38:54.475Z,11.32
2019-04-25T05:39:54.433Z,11.37
2019-04-25T05:40:54.407Z,11.36
2019-04-25T05:41:54.379Z,11.41
2019-04-25T05:42:54.352Z,11.40
2019-04-25T05:43:54.307Z,11.47
2019-04-25T05:44:54.267Z,11.62
2019-04-25T05:45:54.243Z,11.65
2019-04-25T05:46:54.202Z,11.59
2019-04-25T05:47:54.181Z,11.65
2019-04-25T05:48:54.127Z,11.68
2019-04-25T05:49:54.204Z,11.72
2019-04-25T05:50:54.070Z,11.69
2019-04-25T05:51:54.028Z,11.69
2019-04-25T05:52:54.845Z,11.81
2019-04-25T05:53:55.181Z,11.73
2019-04-25T05:54:54.097Z,11.73
2019-04-25T05:55:54.135Z,11.88
2019-04-25T05:56:53.870Z,11.87
2019-04-25T05:57:53.844Z,11.90
2019-04-25T05:58:53.801Z,11.86
2019-04-25T05:59:53.803Z,11.91
2019-04-25T06:00:54.252Z,12.02
2019-04-25T06:01:53.847Z,12.03
2019-04-25T06:02:53.668Z,12.04
2019-04-25T06:03:53.693Z,12.02
2019-04-25T06:04:53.640Z,11.99
2019-04-25T06:05:53.565Z,12.06
2019-04-25T06:06:55.241Z,11.97
2019-04-25T06:07:54.282Z,12.09
2019-04-25T06:08:54.181Z,12.03
2019-04-25T06:09:54.414Z,12.04
2019-04-25T06:10:53.858Z,12.07
2019-04-25T06:11:53.463Z,12.04
2019-04-25T06:12:53.692Z,12.12
2019-04-25T06:13:53.340Z,12.17
2019-04-25T06:14:54.589Z,12.17
2019-04-25T06:15:53.393Z,12.28
2019-04-25T06:16:53.612Z,12.20
2019-04-25T06:17:53.352Z,12.24
2019-04-25T06:18:54.803Z,12.24
2019-04-25T06:19:53.444Z,12.21
2019-04-25T06:20:54.316Z,12.29
2019-04-25T06:21:53.518Z,12.37
2019-04-25T06:22:53.453Z,12.28
2019-04-25T06:23:54.427Z,12.29
2019-04-25T06:24:54.227Z,12.37
2019-04-25T06:25:53.810Z,12.42
2019-04-25T06:26:53.878Z,12.42
2019-04-25T06:27:58.611Z,12.40
2019-04-25T06:28:58.995Z,12.53
2019-04-25T06:29:59.063Z,12.46
2019-04-25T06:30:54.116Z,12.54
2019-04-25T06:32:04.257Z,12.53
2019-04-25T06:32:53.221Z,12.61
2019-04-25T06:33:53.942Z,12.60
2019-04-25T06:34:54.151Z,12.64
2019-04-25T06:35:52.577Z,12.58
2019-04-25T06:36:53.650Z,12.57
2019-04-25T06:37:53.675Z,12.65
2019-04-25T06:38:54.085Z,12.65
2019-04-25T06:39:53.682Z,12.79
2019-04-25T06:40:53.566Z,12.79
2019-04-25T06:41:53.769Z,12.80
2019-04-25T06:42:53.598Z,12.83
2019-04-25T06:43:52.321Z,12.90
2019-04-25T06:44:53.478Z,12.93
2019-04-25T06:45:55.205Z,13.03
2019-04-25T06:46:53.532Z,13.04
2019-04-25T06:47:52.186Z,12.98
2019-04-25T06:48:53.429Z,13.11
2019-04-25T06:49:53.245Z,13.15
2019-04-25T06:50:53.628Z,13.15
2019-04-25T06:51:52.069Z,13.20
2019-04-25T06:52:53.636Z,13.20
2019-04-25T06:53:53.422Z,13.25
2019-04-25T06:54:53.276Z,13.37
2019-04-25T06:55:53.559Z,13.30
2019-04-25T06:56:53.431Z,13.33
2019-04-25T06:57:51.873Z,13.33
2019-04-25T06:58:53.281Z,13.44
2019-04-25T06:59:53.232Z,13.46
2019-04-25T07:00:58.782Z,13.44
2019-04-25T07:01:51.732Z,13.47
2019-04-25T07:02:53.151Z,13.54
2019-04-25T07:03:51.668Z,13.49
2019-04-25T07:04:51.730Z,13.50
2019-04-25T07:05:51.603Z,13.62
2019-04-25T07:06:51.577Z,13.65
2019-04-25T07:07:53.378Z,13.63
2019-04-25T07:08:51.508Z,13.63
2019-04-25T07:09:53.271Z,13.70
2019-04-25T07:10:51.449Z,13.72
2019-04-25T07:11:51.399Z,13.75
2019-04-25T07:12:51.379Z,13.85
2019-04-25T07:13:51.346Z,13.77
2019-04-25T07:14:51.313Z,13.85
2019-04-25T07:15:51.286Z,13.81
2019-04-25T07:16:51.254Z,13.81
2019-04-25T07:17:51.219Z,13.81
2019-04-25T07:18:51.213Z,13.96
2019-04-25T07:19:51.154Z,13.97
2019-04-25T07:20:51.120Z,13.89
2019-04-25T07:21:51.092Z,13.81
2019-04-25T07:22:51.063Z,13.79
2019-04-25T07:23:51.029Z,13.79
2019-04-25T07:24:50.993Z,13.92
2019-04-25T07:25:50.965Z,13.96
2019-04-25T07:26:50.936Z,13.90
2019-04-25T07:27:50.904Z,13.97
2019-04-25T07:28:50.865Z,13.96
2019-04-25T07:29:50.834Z,14.00
2019-04-25T07:30:52.667Z,14.07
2019-04-25T07:31:50.776Z,14.11
2019-04-25T07:32:50.745Z,14.08
2019-04-25T07:33:50.736Z,14.03
2019-04-25T07:34:50.685Z,14.05
2019-04-25T07:35:50.646Z,14.05
2019-04-25T07:36:50.612Z,14.12
2019-04-25T07:37:50.582Z,14.12
2019-04-25T07:38:50.549Z,14.14
2019-04-25T07:39:50.521Z,14.18
2019-04-25T07:40:50.482Z,14.15
2019-04-25T07:41:50.451Z,14.14
2019-04-25T07:42:50.430Z,14.20
2019-04-25T07:43:50.389Z,14.12
2019-04-25T07:44:52.972Z,14.20
2019-04-25T07:45:50.371Z,14.15
2019-04-25T07:46:50.301Z,14.23
2019-04-25T07:47:50.333Z,14.26
2019-04-25T07:48:50.230Z,14.23
2019-04-25T07:49:50.198Z,14.28
2019-04-25T07:50:50.172Z,14.30
2019-04-25T07:51:50.145Z,14.33
2019-04-25T07:52:50.123Z,14.33
2019-04-25T07:53:50.077Z,14.37
2019-04-25T07:54:50.047Z,14.48
2019-04-25T07:55:50.007Z,14.35
2019-04-25T07:56:49.987Z,14.53
2019-04-25T07:57:49.951Z,14.47
2019-04-25T07:58:52.589Z,14.54
2019-04-25T07:59:51.635Z,14.66
2019-04-25T08:00:49.861Z,14.59
2019-04-25T08:01:49.831Z,14.65
2019-04-25T08:02:49.788Z,14.62
2019-04-25T08:03:49.768Z,14.69
2019-04-25T08:04:49.728Z,14.60
2019-04-25T08:05:49.700Z,14.77
2019-04-25T08:06:49.665Z,14.72
2019-04-25T08:07:49.637Z,14.77
2019-04-25T08:08:49.603Z,14.66
2019-04-25T08:09:49.575Z,14.77
2019-04-25T08:10:49.539Z,14.78
2019-04-25T08:11:49.527Z,14.78
2019-04-25T08:12:49.477Z,14.77
2019-04-25T08:13:49.442Z,14.84
2019-04-25T08:14:49.413Z,14.89
2019-04-25T08:15:49.387Z,14.99
2019-04-25T08:16:49.349Z,15.06
2019-04-25T08:17:49.318Z,14.96
2019-04-25T08:18:49.319Z,15.07
2019-04-25T08:19:49.261Z,15.06
2019-04-25T08:20:49.226Z,15.04
2019-04-25T08:21:49.199Z,15.04
2019-04-25T08:22:56.580Z,15.07
2019-04-25T08:23:49.143Z,15.09
2019-04-25T08:24:49.101Z,15.09
2019-04-25T08:25:49.083Z,15.17
2019-04-25T08:26:49.047Z,15.18
2019-04-25T08:27:49.014Z,15.19
2019-04-25T08:28:55.123Z,15.22
2019-04-25T08:29:48.944Z,15.33
2019-04-25T08:30:48.934Z,15.40
2019-04-25T08:31:48.893Z,15.43
2019-04-25T08:32:48.862Z,15.42
2019-04-25T08:33:48.829Z,15.46
2019-04-25T08:34:48.794Z,15.52
2019-04-25T08:36:03.535Z,15.58
2019-04-25T08:36:48.734Z,15.62
2019-04-25T08:37:48.703Z,15.67
2019-04-25T08:38:48.674Z,15.67
2019-04-25T08:39:48.638Z,15.72
2019-04-25T08:40:48.632Z,15.83
2019-04-25T08:41:48.583Z,15.86
2019-04-25T08:42:48.543Z,15.90
2019-04-25T08:43:48.515Z,15.97
2019-04-25T08:44:48.494Z,15.91
2019-04-25T08:45:48.455Z,15.97
2019-04-25T08:46:48.887Z,16.05
2019-04-25T08:47:48.398Z,16.08
2019-04-25T08:48:48.365Z,16.05
2019-04-25T08:49:49.529Z,16.10
2019-04-25T08:50:48.305Z,16.02
2019-04-25T08:51:48.274Z,16.04
2019-04-25T08:52:48.270Z,16.12
2019-04-25T08:53:48.215Z,16.28
2019-04-25T08:54:48.197Z,16.24
2019-04-25T08:55:48.149Z,16.35
2019-04-25T08:56:48.123Z,16.28
2019-04-25T08:57:48.096Z,16.43
2019-04-25T08:58:48.079Z,16.39
2019-04-25T08:59:52.318Z,16.56
2019-04-25T09:00:58.237Z,16.47
2019-04-25T09:01:47.970Z,16.50
2019-04-25T09:02:47.940Z,16.49
2019-04-25T09:03:47.912Z,16.61
2019-04-25T09:04:47.885Z,16.64
2019-04-25T09:05:47.916Z,16.56
2019-04-25T09:06:47.824Z,16.43
2019-04-25T09:07:47.793Z,16.43
2019-04-25T09:08:47.771Z,16.53
2019-04-25T09:09:47.739Z,16.46
2019-04-25T09:10:47.706Z,16.54
2019-04-25T09:11:47.675Z,16.56
2019-04-25T09:12:47.636Z,16.72
2019-04-25T09:13:47.611Z,16.69
2019-04-25T09:14:47.599Z,16.90
2019-04-25T09:15:47.566Z,17.01
2019-04-25T09:16:47.526Z,17.01
2019-04-25T09:17:47.497Z,17.02
2019-04-25T09:18:47.457Z,17.09
2019-04-25T09:19:47.428Z,17.12
2019-04-25T09:20:47.445Z,17.27
2019-04-25T09:21:49.529Z,17.42
2019-04-25T09:22:47.360Z,17.42
2019-04-25T09:23:47.312Z,17.34
2019-04-25T09:24:47.282Z,17.48
2019-04-25T09:25:47.256Z,17.52
2019-04-25T09:26:47.222Z,17.54
2019-04-25T09:27:47.211Z,17.49
2019-04-25T09:28:47.176Z,17.70
2019-04-25T09:29:47.485Z,17.68
2019-04-25T09:30:47.151Z,17.71
2019-04-25T09:31:47.080Z,17.80
2019-04-25T09:32:47.850Z,17.83
2019-04-25T09:33:47.021Z,17.78
2019-04-25T09:34:46.991Z,17.72
2019-04-25T09:35:46.970Z,17.80
2019-04-25T09:36:46.933Z,17.79
2019-04-25T09:37:46.898Z,17.82
2019-04-25T09:38:48.458Z,17.71
2019-04-25T09:39:46.846Z,17.67
2019-04-25T09:40:46.823Z,17.71
2019-04-25T09:41:46.788Z,17.80
2019-04-25T09:42:46.760Z,17.76
2019-04-25T09:43:46.910Z,17.78
2019-04-25T09:44:46.712Z,17.85
2019-04-25T09:45:46.671Z,17.90
2019-04-25T09:46:47.740Z,17.94
2019-04-25T09:47:46.608Z,17.82
2019-04-25T09:48:46.824Z,18.00
2019-04-25T09:49:46.562Z,18.00
2019-04-25T09:50:46.528Z,17.95
2019-04-25T09:51:47.010Z,18.03
2019-04-25T09:52:47.035Z,18.01
2019-04-25T09:53:50.940Z,18.07
2019-04-25T09:54:46.419Z,18.11
2019-04-25T09:55:47.229Z,18.10
2019-04-25T09:56:47.185Z,18.03
2019-04-25T09:57:46.318Z,18.11
2019-04-25T09:58:48.569Z,18.15
2019-04-25T09:59:46.281Z,18.26
2019-04-25T10:00:46.227Z,18.20
2019-04-25T10:01:46.216Z,18.20
2019-04-25T10:02:46.980Z,18.25
2019-04-25T10:03:46.150Z,18.07
2019-04-25T10:04:46.378Z,18.08
2019-04-25T10:05:46.862Z,18.13
2019-04-25T10:06:46.117Z,18.15
2019-04-25T10:07:47.675Z,18.22
2019-04-25T10:08:46.327Z,18.26
2019-04-25T10:09:46.234Z,18.35
2019-04-25T10:10:46.707Z,18.37
2019-04-25T10:11:46.563Z,18.52
2019-04-25T10:12:45.885Z,18.45
2019-04-25T10:13:46.549Z,18.45
2019-04-25T10:14:47.918Z,18.53
2019-04-25T10:15:45.798Z,18.52
2019-04-25T10:16:45.778Z,18.58
2019-04-25T10:17:46.253Z,18.55
2019-04-25T10:18:45.917Z,18.63
2019-04-25T10:19:45.684Z,18.50
2019-04-25T10:20:46.309Z,18.58
2019-04-25T10:21:45.626Z,18.63
2019-04-25T10:22:46.550Z,18.52
2019-04-25T10:23:46.733Z,18.65
2019-04-25T10:24:58.428Z,18.62
2019-04-25T10:25:46.479Z,18.70
2019-04-25T10:26:46.360Z,18.59
2019-04-25T10:27:48.857Z,18.68
2019-04-25T10:28:45.432Z,18.68
2019-04-25T10:29:51.618Z,18.80
2019-04-25T10:30:45.379Z,18.81
2019-04-25T10:31:45.344Z,18.71
2019-04-25T10:32:46.230Z,18.81
2019-04-25T10:33:45.815Z,18.73
2019-04-25T10:34:46.177Z,18.58
2019-04-25T10:35:52.077Z,18.63
2019-04-25T10:36:45.456Z,18.53
2019-04-25T10:37:46.224Z,18.65
2019-04-25T10:39:00.510Z,18.65
2019-04-25T10:39:45.997Z,18.77
2019-04-25T10:40:46.134Z,18.73
2019-04-25T10:41:46.692Z,18.78
2019-04-25T10:42:48.097Z,18.86
2019-04-25T10:43:45.956Z,18.90
2019-04-25T10:44:47.002Z,18.96
2019-04-25T10:45:46.345Z,18.88
2019-04-25T10:46:46.850Z,19.02
2019-04-25T10:47:45.255Z,19.07
2019-04-25T10:48:45.946Z,19.12
2019-04-25T10:49:45.870Z,19.29
2019-04-25T10:50:45.939Z,19.29
2019-04-25T10:51:45.798Z,19.24
2019-04-25T10:52:46.181Z,19.29
2019-04-25T10:53:45.966Z,19.04
2019-04-25T10:54:45.774Z,19.04
2019-04-25T10:55:45.497Z,19.18
2019-04-25T10:56:46.088Z,19.24
2019-04-25T10:57:45.494Z,19.30
2019-04-25T10:58:46.376Z,19.22
2019-04-25T10:59:55.237Z,19.22
2019-04-25T11:00:46.256Z,19.26
2019-04-25T11:01:46.026Z,19.24
2019-04-25T11:02:45.483Z,19.18
2019-04-25T11:03:45.479Z,19.29
2019-04-25T11:04:47.178Z,19.22
2019-04-25T11:05:45.165Z,19.15
2019-04-25T11:06:45.531Z,19.29
2019-04-25T11:07:44.533Z,19.30
2019-04-25T11:08:44.928Z,19.55
2019-04-25T11:09:45.554Z,19.62
2019-04-25T11:10:46.989Z,19.76
2019-04-25T11:11:44.206Z,19.82
2019-04-25T11:12:44.553Z,19.79
2019-04-25T11:13:45.203Z,19.94
2019-04-25T11:14:44.360Z,20.10
2019-04-25T11:15:44.897Z,20.19
2019-04-25T11:16:45.533Z,20.26
2019-04-25T11:17:45.798Z,20.16
2019-04-25T11:18:45.045Z,20.28
2019-04-25T11:19:44.499Z,20.56
2019-04-25T11:20:44.623Z,20.67
2019-04-25T11:21:45.321Z,20.88
2019-04-25T11:22:44.844Z,21.02
2019-04-25T11:23:44.991Z,21.09
2019-04-25T11:24:43.868Z,21.30
2019-04-25T11:25:45.248Z,21.36
2019-04-25T11:26:47.191Z,21.43
2019-04-25T11:27:46.681Z,21.55
2019-04-25T11:28:45.287Z,21.60
2019-04-25T11:29:45.045Z,21.98
2019-04-25T11:30:45.344Z,22.22
2019-04-25T11:31:44.879Z,22.43
2019-04-25T11:32:45.099Z,22.63
2019-04-25T11:33:43.985Z,22.78
2019-04-25T11:34:46.101Z,22.73
2019-04-25T11:35:46.468Z,22.76
2019-04-25T11:36:44.003Z,22.85
2019-04-25T11:37:43.513Z,23.02
2019-04-25T11:38:43.575Z,23.18
2019-04-25T11:39:45.047Z,23.23
2019-04-25T11:40:46.583Z,23.37
2019-04-25T11:41:46.103Z,23.41
2019-04-25T11:42:45.913Z,23.37
2019-04-25T11:43:45.379Z,23.55
2019-04-25T11:44:45.545Z,23.46
2019-04-25T11:45:43.310Z,23.50
2019-04-25T11:46:44.479Z,23.23
2019-04-25T11:47:45.996Z,23.37
2019-04-25T11:48:45.043Z,23.34
2019-04-25T11:49:45.391Z,23.23
2019-04-25T11:50:48.167Z,22.88
2019-04-25T11:51:44.738Z,22.87
2019-04-25T11:52:43.712Z,22.87
2019-04-25T11:53:45.042Z,23.02
2019-04-25T11:54:44.627Z,23.20
2019-04-25T11:55:43.622Z,23.20
2019-04-25T11:56:45.661Z,23.08
2019-04-25T11:57:47.379Z,23.13
2019-04-25T11:58:45.559Z,23.24
2019-04-25T11:59:45.198Z,23.36
2019-04-25T12:00:43.498Z,23.36
2019-04-25T12:01:45.377Z,23.50
2019-04-25T12:02:43.098Z,23.68
2019-04-25T12:03:46.248Z,23.68
2019-04-25T12:04:45.491Z,23.71
2019-04-25T12:05:45.449Z,23.61
2019-04-25T12:06:45.538Z,23.56
2019-04-25T12:07:44.507Z,23.43
2019-04-25T12:08:44.085Z,23.58
2019-04-25T12:09:45.460Z,23.76
2019-04-25T12:10:45.410Z,23.73
2019-04-25T12:11:44.575Z,23.83
2019-04-25T12:12:43.315Z,23.80
2019-04-25T12:13:44.784Z,23.99
2019-04-25T12:14:44.194Z,24.20
2019-04-25T12:15:43.407Z,24.10
2019-04-25T12:16:46.111Z,24.18
2019-04-25T12:17:42.527Z,24.43
2019-04-25T12:18:45.207Z,24.38
2019-04-25T12:19:42.475Z,24.48
2019-04-25T12:20:44.112Z,24.53
2019-04-25T12:21:42.428Z,24.28
2019-04-25T12:22:44.510Z,24.13
2019-04-25T12:23:45.034Z,24.30
2019-04-25T12:24:44.506Z,24.40
2019-04-25T12:25:42.333Z,24.74
2019-04-25T12:26:45.110Z,25.13
2019-04-25T12:27:42.283Z,25.17
2019-04-25T12:28:42.251Z,25.44
2019-04-25T12:29:43.907Z,25.07
2019-04-25T12:30:43.714Z,24.92
2019-04-25T12:31:42.178Z,24.85
2019-04-25T12:32:42.157Z,25.22
2019-04-25T12:33:43.391Z,25.47
2019-04-25T12:34:42.116Z,25.84
2019-04-25T12:35:43.554Z,25.75
2019-04-25T12:36:42.081Z,25.83
2019-04-25T12:37:42.041Z,25.77
2019-04-25T12:38:42.019Z,25.85
2019-04-25T12:39:41.998Z,25.59
2019-04-25T12:40:43.438Z,25.73
2019-04-25T12:41:41.946Z,25.96
2019-04-25T12:42:41.919Z,25.90
2019-04-25T12:43:41.902Z,25.73
2019-04-25T12:44:43.471Z,25.83
2019-04-25T12:45:43.410Z,25.98
2019-04-25T12:46:43.511Z,26.03
2019-04-25T12:47:41.803Z,26.29
2019-04-25T12:48:43.202Z,26.19
2019-04-25T12:49:43.698Z,26.23
2019-04-25T12:50:41.738Z,26.06
2019-04-25T12:51:41.727Z,26.07